sensor_id;sensor_type;location;lat;lon;timestamp;P1;durP1;ratioP1;P2;durP2;ratioP2
17773;SDS011;9011;33.236;-97.118;2022-12-18T00:00:20;2.50;;;1.07;;
17773;SDS011;9011;33.236;-97.118;2022-12-18T00:02:48;1.50;;;1.30;;
17773;SDS011;9011;33.236;-97.118;2022-12-18T00:05:17;4.97;;;1.50;;
17773;SDS011;9011;33.236;-97.118;2022-12-18T00:07:52;2.60;;;1.20;;
17773;SDS011;9011;33.236;-97.118;2022-12-18T00:10:22;2.80;;;1.33;;
17773;SDS011;9011;33.236;-97.118;2022-12-18T00:12:51;3.33;;;1.40;;
17773;SDS011;9011;33.236;-97.118;2022-12-18T00:15:23;5.17;;;1.60;;
17773;SDS011;9011;33.236;-97.118;2022-12-18T00:17:51;4.17;;;1.47;;
17773;SDS011;9011;33.236;-97.118;2022-12-18T00:20:19;7.80;;;2.20;;
17773;SDS011;9011;33.236;-97.118;2022-12-18T00:22:51;4.67;;;1.90;;
17773;SDS011;9011;33.236;-97.118;2022-12-18T00:25:19;3.07;;;1.73;;
17773;SDS011;9011;33.236;-97.118;2022-12-18T00:27:49;2.23;;;1.80;;
17773;SDS011;9011;33.236;-97.118;2022-12-18T00:30:18;4.93;;;2.37;;
17773;SDS011;9011;33.236;-97.118;2022-12-18T00:32:46;2.87;;;2.50;;
17773;SDS011;9011;33.236;-97.118;2022-12-18T00:35:15;4.63;;;2.37;;
17773;SDS011;9011;33.236;-97.118;2022-12-18T00:37:50;5.53;;;2.80;;
17773;SDS011;9011;33.236;-97.118;2022-12-18T00:40:22;6.13;;;2.60;;
17773;SDS011;9011;33.236;-97.118;2022-12-18T00:42:51;4.20;;;2.70;;
17773;SDS011;9011;33.236;-97.118;2022-12-18T00:45:24;3.80;;;2.73;;
17773;SDS011;9011;33.236;-97.118;2022-12-18T00:47:53;5.30;;;3.13;;
17773;SDS011;9011;33.236;-97.118;2022-12-18T00:50:23;5.57;;;3.87;;
17773;SDS011;9011;33.236;-97.118;2022-12-18T00:52:52;8.53;;;4.73;;
17773;SDS011;9011;33.236;-97.118;2022-12-18T00:55:22;7.13;;;5.67;;
17773;SDS011;9011;33.236;-97.118;2022-12-18T00:57:51;6.37;;;4.67;;
17773;SDS011;9011;33.236;-97.118;2022-12-18T01:00:26;7.77;;;4.37;;
17773;SDS011;9011;33.236;-97.118;2022-12-18T01:02:57;4.67;;;3.90;;
17773;SDS011;9011;33.236;-97.118;2022-12-18T01:05:28;5.10;;;3.60;;
17773;SDS011;9011;33.236;-97.118;2022-12-18T01:08:00;3.57;;;2.70;;
17773;SDS011;9011;33.236;-97.118;2022-12-18T01:10:33;4.60;;;2.97;;
17773;SDS011;9011;33.236;-97.118;2022-12-18T01:13:01;3.30;;;2.90;;
17773;SDS011;9011;33.236;-97.118;2022-12-18T01:15:30;3.23;;;2.70;;
17773;SDS011;9011;33.236;-97.118;2022-12-18T01:17:58;5.57;;;2.63;;
17773;SDS011;9011;33.236;-97.118;2022-12-18T01:20:26;2.63;;;2.23;;
17773;SDS011;9011;33.236;-97.118;2022-12-18T01:22:57;2.37;;;1.83;;
17773;SDS011;9011;33.236;-97.118;2022-12-18T01:25:30;2.57;;;1.90;;
17773;SDS011;9011;33.236;-97.118;2022-12-18T01:28:00;2.30;;;1.70;;
17773;SDS011;9011;33.236;-97.118;2022-12-18T01:30:31;2.20;;;1.90;;
17773;SDS011;9011;33.236;-97.118;2022-12-18T01:33:02;3.40;;;1.60;;
17773;SDS011;9011;33.236;-97.118;2022-12-18T01:35:33;2.37;;;1.67;;
17773;SDS011;9011;33.236;-97.118;2022-12-18T01:38:08;3.23;;;1.90;;
17773;SDS011;9011;33.236;-97.118;2022-12-18T01:40:38;4.33;;;2.23;;
17773;SDS011;9011;33.236;-97.118;2022-12-18T01:43:08;3.87;;;2.73;;
17773;SDS011;9011;33.236;-97.118;2022-12-18T01:45:37;4.30;;;2.50;;
17773;SDS011;9011;33.236;-97.118;2022-12-18T01:48:06;2.17;;;1.60;;
17773;SDS011;9011;33.236;-97.118;2022-12-18T01:50:36;1.33;;;1.17;;
17773;SDS011;9011;33.236;-97.118;2022-12-18T01:53:10;4.87;;;1.20;;
17773;SDS011;9011;33.236;-97.118;2022-12-18T01:55:45;1.97;;;1.20;;
17773;SDS011;9011;33.236;-97.118;2022-12-18T01:58:17;1.73;;;0.90;;
17773;SDS011;9011;33.236;-97.118;2022-12-18T02:00:59;1.67;;;1.00;;
17773;SDS011;9011;33.236;-97.118;2022-12-18T02:03:29;2.67;;;1.47;;
17773;SDS011;9011;33.236;-97.118;2022-12-18T02:05:59;3.80;;;1.20;;
17773;SDS011;9011;33.236;-97.118;2022-12-18T02:08:36;3.73;;;1.50;;
17773;SDS011;9011;33.236;-97.118;2022-12-18T02:11:17;1.67;;;1.33;;
17773;SDS011;9011;33.236;-97.118;2022-12-18T02:13:53;4.17;;;1.50;;
17773;SDS011;9011;33.236;-97.118;2022-12-18T02:16:36;5.93;;;1.50;;
17773;SDS011;9011;33.236;-97.118;2022-12-18T02:19:15;2.97;;;1.80;;
17773;SDS011;9011;33.236;-97.118;2022-12-18T02:21:57;4.77;;;2.20;;
17773;SDS011;9011;33.236;-97.118;2022-12-18T02:24:39;5.30;;;2.90;;
17773;SDS011;9011;33.236;-97.118;2022-12-18T02:27:16;4.87;;;3.17;;
17773;SDS011;9011;33.236;-97.118;2022-12-18T02:29:49;8.93;;;3.40;;
17773;SDS011;9011;33.236;-97.118;2022-12-18T02:32:21;5.33;;;3.33;;
17773;SDS011;9011;33.236;-97.118;2022-12-18T02:34:55;6.67;;;4.00;;
17773;SDS011;9011;33.236;-97.118;2022-12-18T02:37:25;6.83;;;4.20;;
17773;SDS011;9011;33.236;-97.118;2022-12-18T02:39:56;5.87;;;4.20;;
17773;SDS011;9011;33.236;-97.118;2022-12-18T02:42:27;6.80;;;4.50;;
17773;SDS011;9011;33.236;-97.118;2022-12-18T02:44:56;9.70;;;5.00;;
17773;SDS011;9011;33.236;-97.118;2022-12-18T02:47:26;8.60;;;6.43;;
17773;SDS011;9011;33.236;-97.118;2022-12-18T02:50:00;10.20;;;6.40;;
17773;SDS011;9011;33.236;-97.118;2022-12-18T02:52:35;11.20;;;6.37;;
17773;SDS011;9011;33.236;-97.118;2022-12-18T02:55:15;11.07;;;6.60;;
17773;SDS011;9011;33.236;-97.118;2022-12-18T02:57:55;13.80;;;8.07;;
17773;SDS011;9011;33.236;-97.118;2022-12-18T03:00:28;10.40;;;6.47;;
17773;SDS011;9011;33.236;-97.118;2022-12-18T03:02:59;12.67;;;6.47;;
17773;SDS011;9011;33.236;-97.118;2022-12-18T03:05:33;10.63;;;6.83;;
17773;SDS011;9011;33.236;-97.118;2022-12-18T03:08:06;9.30;;;6.23;;
17773;SDS011;9011;33.236;-97.118;2022-12-18T03:10:38;6.93;;;4.50;;
17773;SDS011;9011;33.236;-97.118;2022-12-18T03:13:15;6.70;;;4.03;;
17773;SDS011;9011;33.236;-97.118;2022-12-18T03:15:47;6.30;;;4.33;;
17773;SDS011;9011;33.236;-97.118;2022-12-18T03:18:20;8.80;;;6.07;;
17773;SDS011;9011;33.236;-97.118;2022-12-18T03:20:52;14.33;;;6.90;;
17773;SDS011;9011;33.236;-97.118;2022-12-18T03:23:26;10.77;;;6.17;;
17773;SDS011;9011;33.236;-97.118;2022-12-18T03:26:02;14.50;;;6.57;;
17773;SDS011;9011;33.236;-97.118;2022-12-18T03:28:35;9.10;;;5.77;;
17773;SDS011;9011;33.236;-97.118;2022-12-18T03:31:07;11.10;;;5.27;;
17773;SDS011;9011;33.236;-97.118;2022-12-18T03:33:40;9.87;;;4.63;;
17773;SDS011;9011;33.236;-97.118;2022-12-18T03:36:13;9.07;;;5.10;;
17773;SDS011;9011;33.236;-97.118;2022-12-18T03:38:42;11.77;;;5.80;;
17773;SDS011;9011;33.236;-97.118;2022-12-18T03:41:13;6.70;;;4.13;;
17773;SDS011;9011;33.236;-97.118;2022-12-18T03:43:51;8.80;;;4.40;;
17773;SDS011;9011;33.236;-97.118;2022-12-18T03:46:25;7.50;;;4.07;;
17773;SDS011;9011;33.236;-97.118;2022-12-18T03:49:04;7.17;;;3.83;;
17773;SDS011;9011;33.236;-97.118;2022-12-18T03:51:39;7.13;;;3.70;;
17773;SDS011;9011;33.236;-97.118;2022-12-18T03:54:13;6.00;;;3.70;;
17773;SDS011;9011;33.236;-97.118;2022-12-18T03:56:44;5.97;;;3.63;;
17773;SDS011;9011;33.236;-97.118;2022-12-18T03:59:17;11.57;;;4.37;;
17773;SDS011;9011;33.236;-97.118;2022-12-18T04:01:49;6.20;;;3.60;;
17773;SDS011;9011;33.236;-97.118;2022-12-18T04:04:20;5.23;;;3.20;;
17773;SDS011;9011;33.236;-97.118;2022-12-18T04:06:51;12.10;;;3.27;;
17773;SDS011;9011;33.236;-97.118;2022-12-18T04:09:20;5.80;;;3.27;;
17773;SDS011;9011;33.236;-97.118;2022-12-18T04:11:51;6.23;;;3.50;;
17773;SDS011;9011;33.236;-97.118;2022-12-18T04:14:22;6.03;;;3.73;;
17773;SDS011;9011;33.236;-97.118;2022-12-18T04:16:50;8.07;;;3.97;;
17773;SDS011;9011;33.236;-97.118;2022-12-18T04:19:19;6.63;;;3.90;;
17773;SDS011;9011;33.236;-97.118;2022-12-18T04:21:47;7.37;;;4.17;;
17773;SDS011;9011;33.236;-97.118;2022-12-18T04:24:16;5.70;;;3.73;;
17773;SDS011;9011;33.236;-97.118;2022-12-18T04:26:45;8.13;;;4.30;;
17773;SDS011;9011;33.236;-97.118;2022-12-18T04:29:13;7.83;;;5.30;;
17773;SDS011;9011;33.236;-97.118;2022-12-18T04:31:45;7.20;;;4.90;;
17773;SDS011;9011;33.236;-97.118;2022-12-18T04:35:09;6.23;;;3.47;;
17773;SDS011;9011;33.236;-97.118;2022-12-18T04:38:26;4.37;;;2.87;;
17773;SDS011;9011;33.236;-97.118;2022-12-18T04:41:43;4.00;;;3.57;;
17773;SDS011;9011;33.236;-97.118;2022-12-18T04:51:30;10.00;;;3.77;;
17773;SDS011;9011;33.236;-97.118;2022-12-18T04:54:44;6.63;;;3.60;;
17773;SDS011;9011;33.236;-97.118;2022-12-18T04:57:47;6.67;;;3.80;;
17773;SDS011;9011;33.236;-97.118;2022-12-18T05:00:59;6.73;;;3.63;;
17773;SDS011;9011;33.236;-97.118;2022-12-18T05:04:14;7.83;;;3.60;;
17773;SDS011;9011;33.236;-97.118;2022-12-18T05:07:32;7.50;;;4.07;;
17773;SDS011;9011;33.236;-97.118;2022-12-18T05:10:40;8.37;;;4.03;;
17773;SDS011;9011;33.236;-97.118;2022-12-18T05:18:30;7.83;;;3.53;;
17773;SDS011;9011;33.236;-97.118;2022-12-18T05:20:32;7.87;;;3.60;;
17773;SDS011;9011;33.236;-97.118;2022-12-18T05:23:12;5.33;;;3.97;;
17773;SDS011;9011;33.236;-97.118;2022-12-18T05:32:48;9.20;;;4.30;;
17773;SDS011;9011;33.236;-97.118;2022-12-18T05:38:53;17.13;;;5.87;;
17773;SDS011;9011;33.236;-97.118;2022-12-18T05:41:57;14.30;;;6.70;;
17773;SDS011;9011;33.236;-97.118;2022-12-18T05:45:04;10.57;;;6.10;;
17773;SDS011;9011;33.236;-97.118;2022-12-18T05:47:45;11.27;;;5.87;;
17773;SDS011;9011;33.236;-97.118;2022-12-18T05:50:45;8.60;;;6.23;;
17773;SDS011;9011;33.236;-97.118;2022-12-18T05:57:36;15.60;;;5.90;;
17773;SDS011;9011;33.236;-97.118;2022-12-18T06:00:50;10.37;;;6.00;;
17773;SDS011;9011;33.236;-97.118;2022-12-18T06:04:02;8.33;;;4.93;;
17773;SDS011;9011;33.236;-97.118;2022-12-18T06:23:28;16.40;;;7.47;;
17773;SDS011;9011;33.236;-97.118;2022-12-18T06:25:58;14.40;;;7.17;;
17773;SDS011;9011;33.236;-97.118;2022-12-18T06:28:35;14.73;;;7.80;;
17773;SDS011;9011;33.236;-97.118;2022-12-18T06:31:13;14.50;;;7.70;;
17773;SDS011;9011;33.236;-97.118;2022-12-18T06:34:20;17.37;;;7.70;;
17773;SDS011;9011;33.236;-97.118;2022-12-18T06:40:54;11.57;;;7.10;;
17773;SDS011;9011;33.236;-97.118;2022-12-18T06:46:54;12.40;;;5.93;;
17773;SDS011;9011;33.236;-97.118;2022-12-18T06:49:45;13.97;;;6.87;;
17773;SDS011;9011;33.236;-97.118;2022-12-18T06:52:22;11.43;;;5.97;;
17773;SDS011;9011;33.236;-97.118;2022-12-18T06:55:12;12.93;;;6.37;;
17773;SDS011;9011;33.236;-97.118;2022-12-18T07:01:35;9.73;;;5.80;;
17773;SDS011;9011;33.236;-97.118;2022-12-18T07:07:59;8.60;;;4.80;;
17773;SDS011;9011;33.236;-97.118;2022-12-18T07:10:27;5.83;;;3.80;;
17773;SDS011;9011;33.236;-97.118;2022-12-18T07:12:56;10.80;;;4.97;;
17773;SDS011;9011;33.236;-97.118;2022-12-18T07:15:24;6.33;;;4.20;;
17773;SDS011;9011;33.236;-97.118;2022-12-18T07:17:53;10.70;;;4.10;;
17773;SDS011;9011;33.236;-97.118;2022-12-18T07:20:23;7.27;;;4.07;;
17773;SDS011;9011;33.236;-97.118;2022-12-18T07:22:51;5.77;;;3.70;;
17773;SDS011;9011;33.236;-97.118;2022-12-18T07:25:20;8.27;;;3.47;;
17773;SDS011;9011;33.236;-97.118;2022-12-18T07:27:50;11.23;;;5.23;;
17773;SDS011;9011;33.236;-97.118;2022-12-18T07:30:21;8.53;;;4.67;;
17773;SDS011;9011;33.236;-97.118;2022-12-18T07:33:03;4.53;;;3.90;;
17773;SDS011;9011;33.236;-97.118;2022-12-18T07:35:34;10.43;;;3.77;;
17773;SDS011;9011;33.236;-97.118;2022-12-18T07:38:16;8.13;;;4.67;;
17773;SDS011;9011;33.236;-97.118;2022-12-18T07:41:12;5.60;;;4.37;;
17773;SDS011;9011;33.236;-97.118;2022-12-18T07:44:08;6.30;;;4.03;;
17773;SDS011;9011;33.236;-97.118;2022-12-18T07:47:17;6.47;;;4.50;;
17773;SDS011;9011;33.236;-97.118;2022-12-18T07:49:46;7.10;;;4.27;;
17773;SDS011;9011;33.236;-97.118;2022-12-18T07:52:16;7.40;;;4.40;;
17773;SDS011;9011;33.236;-97.118;2022-12-18T07:54:44;9.60;;;3.50;;
17773;SDS011;9011;33.236;-97.118;2022-12-18T07:57:14;5.07;;;3.30;;
17773;SDS011;9011;33.236;-97.118;2022-12-18T07:59:43;7.67;;;3.47;;
17773;SDS011;9011;33.236;-97.118;2022-12-18T08:02:12;7.33;;;3.53;;
17773;SDS011;9011;33.236;-97.118;2022-12-18T08:04:41;4.63;;;3.43;;
17773;SDS011;9011;33.236;-97.118;2022-12-18T08:07:27;5.23;;;3.07;;
17773;SDS011;9011;33.236;-97.118;2022-12-18T08:10:23;7.90;;;3.83;;
17773;SDS011;9011;33.236;-97.118;2022-12-18T08:13:20;5.00;;;3.40;;
17773;SDS011;9011;33.236;-97.118;2022-12-18T08:16:06;5.50;;;3.30;;
17773;SDS011;9011;33.236;-97.118;2022-12-18T08:18:47;6.87;;;3.40;;
17773;SDS011;9011;33.236;-97.118;2022-12-18T08:21:36;7.53;;;3.50;;
17773;SDS011;9011;33.236;-97.118;2022-12-18T08:24:08;8.57;;;4.20;;
17773;SDS011;9011;33.236;-97.118;2022-12-18T08:26:37;7.53;;;3.43;;
17773;SDS011;9011;33.236;-97.118;2022-12-18T08:29:08;8.60;;;3.67;;
17773;SDS011;9011;33.236;-97.118;2022-12-18T08:31:37;8.93;;;3.57;;
17773;SDS011;9011;33.236;-97.118;2022-12-18T08:34:05;5.23;;;3.40;;
17773;SDS011;9011;33.236;-97.118;2022-12-18T08:36:39;4.37;;;2.40;;
17773;SDS011;9011;33.236;-97.118;2022-12-18T08:39:10;5.40;;;2.23;;
17773;SDS011;9011;33.236;-97.118;2022-12-18T08:45:18;3.33;;;2.23;;
17773;SDS011;9011;33.236;-97.118;2022-12-18T08:48:10;5.43;;;2.33;;
17773;SDS011;9011;33.236;-97.118;2022-12-18T08:50:41;3.07;;;2.07;;
17773;SDS011;9011;33.236;-97.118;2022-12-18T08:53:30;4.33;;;2.47;;
17773;SDS011;9011;33.236;-97.118;2022-12-18T08:56:26;5.60;;;2.80;;
17773;SDS011;9011;33.236;-97.118;2022-12-18T08:58:58;4.37;;;2.53;;
17773;SDS011;9011;33.236;-97.118;2022-12-18T09:01:27;6.83;;;2.37;;
17773;SDS011;9011;33.236;-97.118;2022-12-18T09:03:58;4.60;;;2.30;;
17773;SDS011;9011;33.236;-97.118;2022-12-18T09:06:27;4.43;;;2.70;;
17773;SDS011;9011;33.236;-97.118;2022-12-18T09:08:56;4.13;;;2.37;;
17773;SDS011;9011;33.236;-97.118;2022-12-18T09:11:27;3.03;;;2.73;;
17773;SDS011;9011;33.236;-97.118;2022-12-18T09:13:56;4.90;;;2.23;;
17773;SDS011;9011;33.236;-97.118;2022-12-18T09:16:26;3.53;;;2.23;;
17773;SDS011;9011;33.236;-97.118;2022-12-18T09:19:00;3.67;;;2.57;;
17773;SDS011;9011;33.236;-97.118;2022-12-18T09:21:33;3.70;;;2.10;;
17773;SDS011;9011;33.236;-97.118;2022-12-18T09:24:04;4.30;;;2.47;;
17773;SDS011;9011;33.236;-97.118;2022-12-18T09:26:43;2.93;;;2.10;;
17773;SDS011;9011;33.236;-97.118;2022-12-18T09:32:16;2.60;;;2.30;;
17773;SDS011;9011;33.236;-97.118;2022-12-18T09:34:45;5.03;;;2.33;;
17773;SDS011;9011;33.236;-97.118;2022-12-18T09:37:16;7.63;;;2.63;;
17773;SDS011;9011;33.236;-97.118;2022-12-18T09:39:45;5.23;;;2.30;;
17773;SDS011;9011;33.236;-97.118;2022-12-18T09:42:16;5.03;;;2.53;;
17773;SDS011;9011;33.236;-97.118;2022-12-18T09:44:55;3.27;;;2.33;;
17773;SDS011;9011;33.236;-97.118;2022-12-18T09:47:28;3.20;;;2.57;;
17773;SDS011;9011;33.236;-97.118;2022-12-18T09:50:04;3.53;;;2.33;;
17773;SDS011;9011;33.236;-97.118;2022-12-18T09:52:44;14.03;;;2.90;;
17773;SDS011;9011;33.236;-97.118;2022-12-18T09:55:20;3.47;;;2.43;;
17773;SDS011;9011;33.236;-97.118;2022-12-18T09:57:55;5.07;;;2.70;;
17773;SDS011;9011;33.236;-97.118;2022-12-18T10:00:30;2.30;;;2.10;;
17773;SDS011;9011;33.236;-97.118;2022-12-18T10:03:02;4.33;;;2.97;;
17773;SDS011;9011;33.236;-97.118;2022-12-18T10:05:40;3.83;;;2.50;;
17773;SDS011;9011;33.236;-97.118;2022-12-18T10:08:42;6.60;;;2.80;;
17773;SDS011;9011;33.236;-97.118;2022-12-18T10:17:25;2.70;;;2.50;;
17773;SDS011;9011;33.236;-97.118;2022-12-18T10:19:58;2.63;;;2.13;;
17773;SDS011;9011;33.236;-97.118;2022-12-18T10:22:33;3.40;;;2.40;;
17773;SDS011;9011;33.236;-97.118;2022-12-18T10:25:19;9.20;;;2.93;;
17773;SDS011;9011;33.236;-97.118;2022-12-18T10:27:51;3.20;;;2.13;;
17773;SDS011;9011;33.236;-97.118;2022-12-18T10:30:25;4.07;;;2.40;;
17773;SDS011;9011;33.236;-97.118;2022-12-18T10:32:53;3.63;;;2.57;;
17773;SDS011;9011;33.236;-97.118;2022-12-18T10:35:27;5.50;;;2.70;;
17773;SDS011;9011;33.236;-97.118;2022-12-18T10:37:59;3.73;;;2.30;;
17773;SDS011;9011;33.236;-97.118;2022-12-18T10:40:36;3.30;;;2.10;;
17773;SDS011;9011;33.236;-97.118;2022-12-18T10:43:23;3.90;;;2.13;;
17773;SDS011;9011;33.236;-97.118;2022-12-18T10:46:00;6.73;;;3.10;;
17773;SDS011;9011;33.236;-97.118;2022-12-18T10:48:50;6.53;;;2.50;;
17773;SDS011;9011;33.236;-97.118;2022-12-18T10:51:22;3.70;;;2.80;;
17773;SDS011;9011;33.236;-97.118;2022-12-18T10:53:52;2.87;;;2.07;;
17773;SDS011;9011;33.236;-97.118;2022-12-18T10:56:24;3.50;;;2.23;;
17773;SDS011;9011;33.236;-97.118;2022-12-18T10:59:10;4.73;;;2.20;;
17773;SDS011;9011;33.236;-97.118;2022-12-18T11:01:53;3.60;;;2.63;;
17773;SDS011;9011;33.236;-97.118;2022-12-18T11:04:22;5.03;;;2.73;;
17773;SDS011;9011;33.236;-97.118;2022-12-18T11:06:56;3.40;;;2.30;;
17773;SDS011;9011;33.236;-97.118;2022-12-18T11:09:27;5.10;;;2.63;;
17773;SDS011;9011;33.236;-97.118;2022-12-18T11:11:57;3.93;;;2.53;;
17773;SDS011;9011;33.236;-97.118;2022-12-18T11:14:28;4.03;;;2.83;;
17773;SDS011;9011;33.236;-97.118;2022-12-18T11:17:01;3.63;;;2.27;;
17773;SDS011;9011;33.236;-97.118;2022-12-18T11:19:31;2.67;;;2.47;;
17773;SDS011;9011;33.236;-97.118;2022-12-18T11:22:17;4.27;;;2.83;;
17773;SDS011;9011;33.236;-97.118;2022-12-18T11:25:17;3.90;;;2.70;;
17773;SDS011;9011;33.236;-97.118;2022-12-18T11:27:52;3.73;;;2.53;;
17773;SDS011;9011;33.236;-97.118;2022-12-18T11:30:38;4.33;;;2.53;;
17773;SDS011;9011;33.236;-97.118;2022-12-18T11:33:18;4.33;;;2.87;;
17773;SDS011;9011;33.236;-97.118;2022-12-18T11:36:08;3.43;;;2.53;;
17773;SDS011;9011;33.236;-97.118;2022-12-18T11:41:58;7.07;;;2.80;;
17773;SDS011;9011;33.236;-97.118;2022-12-18T11:44:48;3.73;;;2.77;;
17773;SDS011;9011;33.236;-97.118;2022-12-18T11:47:23;5.37;;;3.40;;
17773;SDS011;9011;33.236;-97.118;2022-12-18T11:49:59;5.50;;;3.00;;
17773;SDS011;9011;33.236;-97.118;2022-12-18T11:52:31;6.77;;;2.80;;
17773;SDS011;9011;33.236;-97.118;2022-12-18T11:55:08;3.90;;;3.00;;
17773;SDS011;9011;33.236;-97.118;2022-12-18T11:57:54;4.00;;;2.63;;
17773;SDS011;9011;33.236;-97.118;2022-12-18T12:00:28;4.67;;;2.93;;
17773;SDS011;9011;33.236;-97.118;2022-12-18T12:03:09;2.40;;;2.17;;
17773;SDS011;9011;33.236;-97.118;2022-12-18T12:06:08;3.77;;;2.90;;
17773;SDS011;9011;33.236;-97.118;2022-12-18T12:08:53;3.53;;;2.47;;
17773;SDS011;9011;33.236;-97.118;2022-12-18T12:11:32;4.17;;;3.50;;
17773;SDS011;9011;33.236;-97.118;2022-12-18T12:14:12;4.73;;;2.70;;
17773;SDS011;9011;33.236;-97.118;2022-12-18T12:16:55;5.30;;;2.83;;
17773;SDS011;9011;33.236;-97.118;2022-12-18T12:19:31;3.50;;;2.70;;
17773;SDS011;9011;33.236;-97.118;2022-12-18T12:22:11;5.23;;;3.03;;
17773;SDS011;9011;33.236;-97.118;2022-12-18T12:24:49;5.87;;;2.90;;
17773;SDS011;9011;33.236;-97.118;2022-12-18T12:27:28;4.43;;;3.00;;
17773;SDS011;9011;33.236;-97.118;2022-12-18T12:30:16;7.33;;;2.93;;
17773;SDS011;9011;33.236;-97.118;2022-12-18T12:32:53;4.67;;;2.67;;
17773;SDS011;9011;33.236;-97.118;2022-12-18T12:35:34;4.50;;;2.80;;
17773;SDS011;9011;33.236;-97.118;2022-12-18T12:38:13;3.53;;;2.37;;
17773;SDS011;9011;33.236;-97.118;2022-12-18T12:40:47;5.63;;;3.70;;
17773;SDS011;9011;33.236;-97.118;2022-12-18T12:43:21;3.27;;;2.97;;
17773;SDS011;9011;33.236;-97.118;2022-12-18T12:45:54;5.27;;;2.67;;
17773;SDS011;9011;33.236;-97.118;2022-12-18T12:48:32;4.13;;;2.83;;
17773;SDS011;9011;33.236;-97.118;2022-12-18T12:51:08;6.33;;;3.47;;
17773;SDS011;9011;33.236;-97.118;2022-12-18T12:53:42;4.63;;;2.50;;
17773;SDS011;9011;33.236;-97.118;2022-12-18T12:56:11;6.00;;;2.90;;
17773;SDS011;9011;33.236;-97.118;2022-12-18T12:58:45;3.30;;;2.40;;
17773;SDS011;9011;33.236;-97.118;2022-12-18T13:01:23;5.93;;;3.17;;
17773;SDS011;9011;33.236;-97.118;2022-12-18T13:04:02;4.37;;;3.23;;
17773;SDS011;9011;33.236;-97.118;2022-12-18T13:06:37;4.83;;;3.17;;
17773;SDS011;9011;33.236;-97.118;2022-12-18T13:09:14;3.53;;;3.20;;
17773;SDS011;9011;33.236;-97.118;2022-12-18T13:11:43;8.33;;;3.53;;
17773;SDS011;9011;33.236;-97.118;2022-12-18T13:14:30;3.87;;;3.17;;
17773;SDS011;9011;33.236;-97.118;2022-12-18T13:20:03;4.87;;;2.83;;
17773;SDS011;9011;33.236;-97.118;2022-12-18T13:22:40;3.47;;;3.17;;
17773;SDS011;9011;33.236;-97.118;2022-12-18T13:25:29;5.87;;;3.87;;
17773;SDS011;9011;33.236;-97.118;2022-12-18T13:28:07;3.83;;;3.33;;
17773;SDS011;9011;33.236;-97.118;2022-12-18T13:36:28;5.47;;;3.60;;
17773;SDS011;9011;33.236;-97.118;2022-12-18T13:39:11;4.13;;;3.00;;
17773;SDS011;9011;33.236;-97.118;2022-12-18T13:45:39;3.73;;;3.30;;
17773;SDS011;9011;33.236;-97.118;2022-12-18T13:48:14;3.50;;;3.20;;
17773;SDS011;9011;33.236;-97.118;2022-12-18T13:53:37;9.23;;;3.60;;
17773;SDS011;9011;33.236;-97.118;2022-12-18T13:56:14;4.37;;;3.20;;
17773;SDS011;9011;33.236;-97.118;2022-12-18T13:58:45;4.77;;;3.50;;
17773;SDS011;9011;33.236;-97.118;2022-12-18T14:01:30;8.27;;;3.70;;
17773;SDS011;9011;33.236;-97.118;2022-12-18T14:04:08;8.27;;;4.47;;
17773;SDS011;9011;33.236;-97.118;2022-12-18T14:06:37;6.87;;;3.83;;
17773;SDS011;9011;33.236;-97.118;2022-12-18T14:09:13;7.00;;;4.03;;
17773;SDS011;9011;33.236;-97.118;2022-12-18T14:11:46;8.50;;;5.23;;
17773;SDS011;9011;33.236;-97.118;2022-12-18T14:14:17;9.97;;;5.73;;
17773;SDS011;9011;33.236;-97.118;2022-12-18T14:16:46;8.17;;;5.37;;
17773;SDS011;9011;33.236;-97.118;2022-12-18T14:19:16;6.07;;;4.67;;
17773;SDS011;9011;33.236;-97.118;2022-12-18T14:21:46;12.90;;;9.13;;
17773;SDS011;9011;33.236;-97.118;2022-12-18T14:24:15;26.23;;;12.13;;
17773;SDS011;9011;33.236;-97.118;2022-12-18T14:26:46;23.33;;;13.70;;
17773;SDS011;9011;33.236;-97.118;2022-12-18T14:29:21;20.90;;;12.10;;
17773;SDS011;9011;33.236;-97.118;2022-12-18T14:32:04;14.80;;;8.27;;
17773;SDS011;9011;33.236;-97.118;2022-12-18T14:34:38;7.40;;;5.67;;
17773;SDS011;9011;33.236;-97.118;2022-12-18T14:37:08;7.53;;;4.97;;
17773;SDS011;9011;33.236;-97.118;2022-12-18T14:39:38;10.60;;;4.33;;
17773;SDS011;9011;33.236;-97.118;2022-12-18T14:42:10;7.90;;;5.80;;
17773;SDS011;9011;33.236;-97.118;2022-12-18T14:44:40;9.27;;;4.63;;
17773;SDS011;9011;33.236;-97.118;2022-12-18T14:47:12;7.60;;;4.93;;
17773;SDS011;9011;33.236;-97.118;2022-12-18T14:49:42;11.43;;;5.83;;
17773;SDS011;9011;33.236;-97.118;2022-12-18T14:52:18;8.63;;;5.43;;
17773;SDS011;9011;33.236;-97.118;2022-12-18T14:54:52;8.33;;;5.40;;
17773;SDS011;9011;33.236;-97.118;2022-12-18T14:57:22;8.80;;;6.03;;
17773;SDS011;9011;33.236;-97.118;2022-12-18T14:59:55;6.73;;;5.23;;
17773;SDS011;9011;33.236;-97.118;2022-12-18T15:02:33;9.80;;;5.77;;
17773;SDS011;9011;33.236;-97.118;2022-12-18T15:05:04;8.30;;;5.63;;
17773;SDS011;9011;33.236;-97.118;2022-12-18T15:07:44;11.50;;;5.43;;
17773;SDS011;9011;33.236;-97.118;2022-12-18T15:10:14;9.80;;;5.80;;
17773;SDS011;9011;33.236;-97.118;2022-12-18T15:12:44;6.17;;;4.87;;
17773;SDS011;9011;33.236;-97.118;2022-12-18T15:18:15;9.37;;;4.20;;
17773;SDS011;9011;33.236;-97.118;2022-12-18T15:20:46;7.77;;;4.07;;
17773;SDS011;9011;33.236;-97.118;2022-12-18T15:23:19;5.83;;;3.83;;
17773;SDS011;9011;33.236;-97.118;2022-12-18T15:25:54;6.97;;;3.03;;
17773;SDS011;9011;33.236;-97.118;2022-12-18T15:28:25;4.37;;;2.90;;
17773;SDS011;9011;33.236;-97.118;2022-12-18T15:31:00;3.87;;;2.40;;
17773;SDS011;9011;33.236;-97.118;2022-12-18T15:33:32;5.20;;;2.40;;
17773;SDS011;9011;33.236;-97.118;2022-12-18T15:36:02;4.50;;;2.77;;
17773;SDS011;9011;33.236;-97.118;2022-12-18T15:38:32;5.57;;;3.50;;
17773;SDS011;9011;33.236;-97.118;2022-12-18T15:41:01;4.73;;;3.30;;
17773;SDS011;9011;33.236;-97.118;2022-12-18T15:43:30;6.13;;;3.27;;
17773;SDS011;9011;33.236;-97.118;2022-12-18T15:46:02;7.07;;;3.23;;
17773;SDS011;9011;33.236;-97.118;2022-12-18T15:48:32;4.33;;;3.00;;
17773;SDS011;9011;33.236;-97.118;2022-12-18T15:51:01;5.60;;;3.17;;
17773;SDS011;9011;33.236;-97.118;2022-12-18T15:53:31;2.60;;;2.30;;
17773;SDS011;9011;33.236;-97.118;2022-12-18T15:56:00;4.83;;;2.10;;
17773;SDS011;9011;33.236;-97.118;2022-12-18T15:58:45;3.50;;;2.00;;
17773;SDS011;9011;33.236;-97.118;2022-12-18T16:01:15;2.70;;;1.93;;
17773;SDS011;9011;33.236;-97.118;2022-12-18T16:03:44;2.97;;;2.20;;
17773;SDS011;9011;33.236;-97.118;2022-12-18T16:06:12;3.93;;;2.30;;
17773;SDS011;9011;33.236;-97.118;2022-12-18T16:08:41;5.17;;;2.10;;
17773;SDS011;9011;33.236;-97.118;2022-12-18T16:11:10;3.43;;;1.70;;
17773;SDS011;9011;33.236;-97.118;2022-12-18T16:14:03;2.63;;;1.90;;
17773;SDS011;9011;33.236;-97.118;2022-12-18T16:16:34;3.77;;;2.50;;
17773;SDS011;9011;33.236;-97.118;2022-12-18T16:19:03;2.10;;;1.97;;
17773;SDS011;9011;33.236;-97.118;2022-12-18T16:21:31;3.27;;;2.30;;
17773;SDS011;9011;33.236;-97.118;2022-12-18T16:24:00;5.77;;;2.27;;
17773;SDS011;9011;33.236;-97.118;2022-12-18T16:26:29;4.13;;;2.23;;
17773;SDS011;9011;33.236;-97.118;2022-12-18T16:28:58;4.00;;;2.40;;
17773;SDS011;9011;33.236;-97.118;2022-12-18T16:31:27;4.33;;;2.53;;
17773;SDS011;9011;33.236;-97.118;2022-12-18T16:34:17;3.87;;;2.40;;
17773;SDS011;9011;33.236;-97.118;2022-12-18T16:36:48;3.73;;;2.30;;
17773;SDS011;9011;33.236;-97.118;2022-12-18T16:39:17;3.97;;;2.67;;
17773;SDS011;9011;33.236;-97.118;2022-12-18T16:41:46;3.07;;;2.20;;
17773;SDS011;9011;33.236;-97.118;2022-12-18T16:44:15;3.83;;;1.80;;
17773;SDS011;9011;33.236;-97.118;2022-12-18T16:46:43;3.63;;;2.30;;
17773;SDS011;9011;33.236;-97.118;2022-12-18T16:49:12;5.43;;;1.87;;
17773;SDS011;9011;33.236;-97.118;2022-12-18T16:51:43;4.47;;;1.87;;
17773;SDS011;9011;33.236;-97.118;2022-12-18T16:54:12;2.80;;;1.90;;
17773;SDS011;9011;33.236;-97.118;2022-12-18T16:56:41;2.67;;;2.30;;